Time;durP1;ratioP1;P1;durP2;ratioP2;P2;SDS_P1;SDS_P2;PMS_P1;PMS_P2;Temp;Humidity;BMP_temperature;BMP_pressure;BME280_temperature;BME280_humidity;BME280_pressure;Samples;Min_cycle;Max_cycle;Signal;HPM_P1;HPM_P2
2022/08/22 00:00:11;;;;;;;0.00;0.00;;;18.30;99.90;;;;;;5003778;28;20129;-68
2022/08/22 00:02:51;;;;;;;0.65;0.57;;;18.30;99.90;;;;;;4988443;28;20053;-68
2022/08/22 00:05:28;;;;;;;0.10;0.10;;;18.30;99.90;;;;;;4988468;28;20604;-68
2022/08/22 00:08:26;;;;;;;0.50;0.50;;;18.30;99.90;;;;;;4988210;28;20058;-68
2022/08/22 00:11:13;;;;;;;0.08;0.08;;;18.30;99.90;;;;;;4994586;28;20054;-68
2022/08/22 00:13:59;;;;;;;0.25;0.20;;;18.20;99.90;;;;;;4998889;28;20059;-68
2022/08/22 00:16:58;;;;;;;0.30;0.30;;;18.20;99.90;;;;;;5002896;28;20046;-68
2022/08/22 00:19:34;;;;;;;0.25;0.25;;;18.20;99.90;;;;;;4971887;28;20054;-68
2022/08/22 00:22:14;;;;;;;0.57;0.55;;;18.20;99.90;;;;;;5000886;28;20088;-68
2022/08/22 00:24:51;;;;;;;0.30;0.30;;;18.20;99.90;;;;;;4989240;28;20457;-68
2022/08/22 00:27:25;;;;;;;1.15;0.85;;;18.20;99.90;;;;;;4996016;28;20046;-68
2022/08/22 00:30:09;;;;;;;0.70;0.43;;;18.20;99.90;;;;;;4989636;28;20117;-68
2022/08/22 00:32:49;;;;;;;0.50;0.50;;;18.20;99.90;;;;;;4987998;28;20046;-68
2022/08/22 00:35:35;;;;;;;0.00;0.00;;;18.10;99.90;;;;;;4992456;28;20053;-68
2022/08/22 00:38:31;;;;;;;0.22;0.22;;;18.10;99.90;;;;;;4995407;28;20034;-68
2022/08/22 00:41:21;;;;;;;0.00;0.00;;;18.10;99.90;;;;;;4995441;28;20045;-68
2022/08/22 00:44:02;;;;;;;0.50;0.50;;;18.00;99.90;;;;;;5000171;28;20045;-68
2022/08/22 00:46:53;;;;;;;0.05;0.05;;;18.00;99.90;;;;;;4992237;28;20509;-68
2022/08/22 00:49:52;;;;;;;0.00;0.00;;;18.00;99.90;;;;;;4988706;28;20054;-68
2022/08/22 00:52:43;;;;;;;0.20;0.20;;;18.00;99.90;;;;;;4995168;28;20676;-68
2022/08/22 00:55:41;;;;;;;0.10;0.10;;;17.90;99.90;;;;;;4996697;28;20054;-68
2022/08/22 00:58:31;;;;;;;0.00;0.00;;;17.90;99.90;;;;;;4993500;28;20401;-68
2022/08/22 01:01:05;;;;;;;0.10;0.10;;;17.90;99.90;;;;;;4994411;28;20409;-68
2022/08/22 01:03:43;;;;;;;0.25;0.25;;;17.90;99.90;;;;;;5008286;28;20038;-68
2022/08/22 01:06:22;;;;;;;0.10;0.10;;;17.90;99.90;;;;;;5009280;28;20049;-68
2022/08/22 01:09:09;;;;;;;4.25;0.50;;;17.80;99.90;;;;;;4993104;28;20042;-68
2022/08/22 01:11:44;;;;;;;0.43;0.43;;;17.80;99.90;;;;;;5012315;28;20046;-68
2022/08/22 01:14:32;;;;;;;0.13;0.13;;;17.80;99.90;;;;;;4997853;28;20050;-68
2022/08/22 01:16:59;;;;;;;0.10;0.10;;;17.80;99.90;;;;;;4991921;28;20043;-68
2022/08/22 01:19:27;;;;;;;0.05;0.05;;;17.70;99.90;;;;;;4992578;28;20042;-68
2022/08/22 01:22:30;;;;;;;0.10;0.10;;;17.60;99.90;;;;;;4994362;28;20522;-68
2022/08/22 01:25:17;;;;;;;0.20;0.20;;;17.60;99.90;;;;;;5010379;28;20033;-68
2022/08/22 01:27:58;;;;;;;0.22;0.15;;;17.50;99.90;;;;;;5011723;28;20111;-68
2022/08/22 01:30:54;;;;;;;0.70;0.70;;;17.60;99.90;;;;;;4992968;28;20057;-68
2022/08/22 01:33:50;;;;;;;0.13;0.13;;;17.50;99.90;;;;;;5004524;28;20050;-68
2022/08/22 01:36:34;;;;;;;2.22;0.68;;;17.50;99.90;;;;;;5004027;28;20086;-68
2022/08/22 01:39:08;;;;;;;0.80;0.52;;;17.40;99.90;;;;;;4992219;28;20422;-68
2022/08/22 01:41:49;;;;;;;0.10;0.10;;;17.40;99.90;;;;;;4994083;28;20092;-68
2022/08/22 01:44:34;;;;;;;0.00;0.00;;;17.40;99.90;;;;;;4993674;28;20046;-68
2022/08/22 01:47:10;;;;;;;0.40;0.40;;;17.40;99.90;;;;;;4995980;28;20121;-68
2022/08/22 01:49:47;;;;;;;0.40;0.40;;;17.40;99.90;;;;;;5000460;28;20050;-68
2022/08/22 01:52:27;;;;;;;0.10;0.10;;;17.30;99.90;;;;;;4997854;28;20050;-68
2022/08/22 01:54:59;;;;;;;0.05;0.05;;;17.20;99.90;;;;;;4997106;28;20053;-68
2022/08/22 01:57:26;;;;;;;0.20;0.20;;;17.30;99.90;;;;;;5003367;28;20057;-68
2022/08/22 01:59:56;;;;;;;0.00;0.00;;;17.30;99.90;;;;;;4994281;28;20042;-68
2022/08/22 02:02:40;;;;;;;0.30;0.30;;;17.20;99.90;;;;;;5008130;28;20398;-68
2022/08/22 02:05:18;;;;;;;0.15;0.15;;;17.20;99.90;;;;;;4997523;28;20137;-68
2022/08/22 02:08:17;;;;;;;0.00;0.00;;;17.20;99.90;;;;;;5009639;28;20367;-68
2022/08/22 02:11:04;;;;;;;0.08;0.08;;;17.20;99.90;;;;;;5011422;28;20046;-67
2022/08/22 02:13:58;;;;;;;0.70;0.55;;;17.20;99.90;;;;;;4993086;28;20077;-68
2022/08/22 02:16:49;;;;;;;0.10;0.10;;;17.10;99.90;;;;;;4989377;28;20050;-68
2022/08/22 02:19:14;;;;;;;0.93;0.25;;;17.10;99.90;;;;;;5003818;28;20046;-68
2022/08/22 02:21:40;;;;;;;1.65;0.75;;;17.00;99.90;;;;;;4993663;28;20076;-68
2022/08/22 02:24:40;;;;;;;0.13;0.13;;;17.10;99.90;;;;;;4992261;28;20049;-68
2022/08/22 02:27:15;;;;;;;0.40;0.40;;;17.10;99.90;;;;;;4984248;28;20069;-68
2022/08/22 02:30:21;;;;;;;0.10;0.10;;;17.10;99.90;;;;;;4990910;28;20092;-68
2022/08/22 02:33:05;;;;;;;1.63;1.05;;;17.00;99.90;;;;;;5000032;28;20041;-67
2022/08/22 02:35:48;;;;;;;0.38;0.35;;;17.10;99.90;;;;;;5009649;28;20128;-67
2022/08/22 02:38:23;;;;;;;0.10;0.10;;;17.00;99.90;;;;;;4999866;28;20137;-68
2022/08/22 02:41:09;;;;;;;1.95;0.68;;;17.00;99.90;;;;;;4990195;28;20050;-68
2022/08/22 02:44:15;;;;;;;0.00;0.00;;;16.90;99.90;;;;;;5002187;28;20042;-68
2022/08/22 02:46:59;;;;;;;0.60;0.60;;;16.90;99.90;;;;;;4996992;28;20046;-68
2022/08/22 02:49:34;;;;;;;0.00;0.00;;;17.00;99.90;;;;;;4991142;28;20046;-68
2022/08/22 02:52:44;;;;;;;0.05;0.05;;;16.90;99.90;;;;;;4989042;28;20081;-68
2022/08/22 02:55:47;;;;;;;0.30;0.30;;;16.90;99.90;;;;;;4981972;28;20190;-68
2022/08/22 02:58:35;;;;;;;1.27;1.17;;;16.90;99.90;;;;;;4976693;28;20051;-68
2022/08/22 03:01:28;;;;;;;0.40;0.35;;;16.90;99.90;;;;;;4989151;28;20062;-68
2022/08/22 03:04:22;;;;;;;0.23;0.23;;;16.90;99.90;;;;;;4991647;28;20133;-68
2022/08/22 03:06:57;;;;;;;0.38;0.38;;;16.80;99.90;;;;;;4990999;28;20292;-68
2022/08/22 03:09:33;;;;;;;0.10;0.10;;;16.80;99.90;;;;;;4989996;28;20043;-68
2022/08/22 03:12:07;;;;;;;0.63;0.10;;;16.80;99.90;;;;;;4994039;28;20092;-68
2022/08/22 03:14:51;;;;;;;0.30;0.30;;;16.80;99.90;;;;;;4999935;28;20042;-68
2022/08/22 03:17:26;;;;;;;0.10;0.10;;;16.80;99.90;;;;;;5009697;28;20484;-68
2022/08/22 03:19:59;;;;;;;0.00;0.00;;;16.70;99.90;;;;;;5003683;28;20490;-68
2022/08/22 03:22:43;;;;;;;0.10;0.10;;;16.60;99.90;;;;;;5009027;28;20120;-67
2022/08/22 03:25:13;;;;;;;1.77;1.20;;;16.70;99.90;;;;;;4999813;28;20046;-67
2022/08/22 03:27:48;;;;;;;0.28;0.28;;;16.70;99.90;;;;;;5000255;28;20095;-68
2022/08/22 03:30:39;;;;;;;0.00;0.00;;;16.70;99.90;;;;;;5006748;28;20136;-68
2022/08/22 03:33:28;;;;;;;0.20;0.20;;;16.70;99.90;;;;;;5004439;28;20042;-68
2022/08/22 03:36:05;;;;;;;0.10;0.10;;;16.80;99.90;;;;;;4990064;28;20038;-68
2022/08/22 03:38:31;;;;;;;5.68;0.73;;;16.70;99.90;;;;;;4990593;28;20046;-68
2022/08/22 03:41:26;;;;;;;0.08;0.08;;;16.80;99.90;;;;;;5009665;28;20378;-68
2022/08/22 03:44:10;;;;;;;0.10;0.10;;;16.80;99.90;;;;;;5005965;28;20042;-68
2022/08/22 03:46:42;;;;;;;0.80;0.80;;;16.80;99.90;;;;;;5009367;28;20482;-68
2022/08/22 03:49:43;;;;;;;0.13;0.13;;;16.70;99.90;;;;;;5009091;28;20490;-68
2022/08/22 03:53:09;;;;;;;0.80;0.73;;;16.70;99.90;;;;;;4993318;28;20062;-68
2022/08/22 03:56:06;;;;;;;0.57;0.50;;;16.60;99.90;;;;;;4989164;28;20306;-68
2022/08/22 03:58:46;;;;;;;0.00;0.00;;;16.60;99.90;;;;;;5006582;28;20065;-68
2022/08/22 04:01:40;;;;;;;0.00;0.00;;;16.60;99.90;;;;;;5007264;28;20050;-68
2022/08/22 04:04:32;;;;;;;0.68;0.40;;;16.60;99.90;;;;;;5006536;28;20438;-68
2022/08/22 04:07:06;;;;;;;0.80;0.60;;;16.60;99.90;;;;;;4986802;28;20050;-68
2022/08/22 04:10:22;;;;;;;0.00;0.00;;;16.60;99.90;;;;;;4992351;28;20038;-68
2022/08/22 04:13:14;;;;;;;0.00;0.00;;;16.60;99.90;;;;;;4998810;28;20060;-68
2022/08/22 04:16:05;;;;;;;0.00;0.00;;;16.60;99.90;;;;;;4992072;28;20042;-67
2022/08/22 04:18:40;;;;;;;0.70;0.43;;;16.60;99.90;;;;;;4987726;28;20469;-68
2022/08/22 04:21:13;;;;;;;0.10;0.10;;;16.60;99.90;;;;;;5002492;28;20085;-67
2022/08/22 04:24:03;;;;;;;0.10;0.10;;;16.60;99.90;;;;;;4988406;28;20541;-68
2022/08/22 04:26:56;;;;;;;0.00;0.00;;;16.60;99.90;;;;;;4995272;28;20049;-68
2022/08/22 04:29:35;;;;;;;0.10;0.10;;;16.60;99.90;;;;;;4987310;28;20062;-68
2022/08/22 04:32:18;;;;;;;0.00;0.00;;;16.60;99.90;;;;;;4988418;28;20078;-67
2022/08/22 04:35:01;;;;;;;;;;;16.60;99.90;;;;;;4991081;28;20121;-68
2022/08/22 04:37:27;;;;;;;0.28;0.28;;;16.60;99.90;;;;;;4996021;28;19921;-68
2022/08/22 04:39:58;;;;;;;0.20;0.20;;;16.60;99.90;;;;;;4991379;28;20081;-68
2022/08/22 04:42:39;;;;;;;0.20;0.20;;;16.60;99.90;;;;;;5003663;28;20046;-68
2022/08/22 04:45:17;;;;;;;0.60;0.60;;;16.60;99.90;;;;;;5012849;28;20045;-68
2022/08/22 04:47:51;;;;;;;1.95;0.45;;;16.60;99.90;;;;;;5004376;28;20082;-67
2022/08/22 04:50:38;;;;;;;0.00;0.00;;;16.60;99.90;;;;;;4993104;28;20089;-68
2022/08/22 04:53:19;;;;;;;0.00;0.00;;;16.60;99.90;;;;;;5007252;28;20084;-68
2022/08/22 04:55:55;;;;;;;0.38;0.38;;;16.60;99.90;;;;;;4994141;28;20121;-68
2022/08/22 04:58:44;;;;;;;0.00;0.00;;;16.60;99.90;;;;;;5003485;28;20046;-68
2022/08/22 05:01:13;;;;;;;0.00;0.00;;;16.60;99.90;;;;;;5001238;28;20050;-68
2022/08/22 05:03:54;;;;;;;0.00;0.00;;;16.60;99.90;;;;;;5005049;28;20073;-68
2022/08/22 05:06:25;;;;;;;0.22;0.22;;;16.60;99.90;;;;;;5012222;28;20057;-68
2022/08/22 05:08:51;;;;;;;0.05;0.05;;;16.60;99.90;;;;;;5011062;28;20045;-68
2022/08/22 05:11:21;;;;;;;1.13;0.47;;;16.60;99.90;;;;;;5005904;28;20244;-68
2022/08/22 05:13:52;;;;;;;0.20;0.20;;;16.60;99.90;;;;;;4992719;28;20486;-67
2022/08/22 05:16:26;;;;;;;0.57;0.57;;;16.60;99.90;;;;;;4992063;28;20501;-68
2022/08/22 05:19:16;;;;;;;0.28;0.28;;;16.60;99.90;;;;;;4992998;28;20086;-68
2022/08/22 05:21:45;;;;;;;0.00;0.00;;;16.60;99.90;;;;;;4991594;28;20144;-68
2022/08/22 05:24:20;;;;;;;0.00;0.00;;;16.60;99.90;;;;;;5005560;28;20081;-68
2022/08/22 05:26:51;;;;;;;0.30;0.30;;;16.60;99.90;;;;;;5005021;28;20054;-68
2022/08/22 05:29:21;;;;;;;0.10;0.10;;;16.60;99.90;;;;;;4991508;28;20474;-68
2022/08/22 05:31:59;;;;;;;0.10;0.10;;;16.70;99.90;;;;;;4995709;28;20478;-68
2022/08/22 05:34:31;;;;;;;18.77;1.35;;;16.80;99.90;;;;;;4991677;28;20073;-68
2022/08/22 05:37:13;;;;;;;0.00;0.00;;;16.80;99.90;;;;;;4991826;28;20477;-68
2022/08/22 05:39:45;;;;;;;0.30;0.30;;;16.80;99.90;;;;;;5009383;28;20538;-68
2022/08/22 05:42:17;;;;;;;0.32;0.32;;;16.90;99.90;;;;;;5006141;28;20042;-68
2022/08/22 05:44:42;;;;;;;0.43;0.43;;;16.90;99.90;;;;;;4990094;28;20060;-68
2022/08/22 05:47:25;;;;;;;0.22;0.22;;;16.90;99.90;;;;;;4991819;28;20129;-68
2022/08/22 05:50:11;;;;;;;0.83;0.40;;;16.90;99.90;;;;;;5000989;28;20060;-68
2022/08/22 05:53:09;;;;;;;0.00;0.00;;;16.90;99.90;;;;;;5007112;28;20308;-68
2022/08/22 05:55:58;;;;;;;0.38;0.20;;;16.90;99.90;;;;;;4990650;28;20054;-68
2022/08/22 05:58:52;;;;;;;0.25;0.25;;;16.90;99.90;;;;;;4991440;28;20050;-68
2022/08/22 06:01:36;;;;;;;0.75;0.75;;;17.00;99.90;;;;;;4994425;28;20635;-68
2022/08/22 06:04:35;;;;;;;0.85;0.85;;;17.00;99.90;;;;;;5009283;28;20513;-68
2022/08/22 06:07:15;;;;;;;0.10;0.10;;;16.90;99.90;;;;;;5009239;28;20073;-68
2022/08/22 06:10:17;;;;;;;0.00;0.00;;;17.00;99.90;;;;;;5011155;28;20064;-68
2022/08/22 06:13:04;;;;;;;0.60;0.60;;;17.00;99.90;;;;;;5010744;28;20108;-68
2022/08/22 06:15:55;;;;;;;1.05;1.02;;;17.00;99.90;;;;;;5000122;28;20142;-68
2022/08/22 06:18:25;;;;;;;0.10;0.10;;;17.00;99.90;;;;;;4988923;28;20054;-68
2022/08/22 06:20:56;;;;;;;0.40;0.40;;;17.00;99.90;;;;;;4994301;28;20078;-68
2022/08/22 06:23:27;;;;;;;0.03;0.03;;;17.00;99.90;;;;;;4990712;28;20046;-68
2022/08/22 06:25:57;;;;;;;0.88;0.80;;;17.00;99.90;;;;;;4990750;28;20038;-68
2022/08/22 06:28:28;;;;;;;0.35;0.35;;;17.00;99.90;;;;;;5010125;28;20041;-68
2022/08/22 06:30:55;;;;;;;0.63;0.63;;;17.10;99.90;;;;;;4991784;28;20125;-68
2022/08/22 06:33:27;;;;;;;0.55;0.55;;;17.10;99.90;;;;;;4988537;28;20466;-68
2022/08/22 06:36:29;;;;;;;0.10;0.10;;;17.10;99.90;;;;;;4995812;28;20117;-68
2022/08/22 06:39:13;;;;;;;0.10;0.10;;;17.10;99.90;;;;;;5007800;28;20040;-68
2022/08/22 06:41:47;;;;;;;;;;;17.10;99.90;;;;;;4999529;28;20493;-68
2022/08/22 06:44:18;;;;;;;0.30;0.30;;;17.10;99.90;;;;;;5008465;28;19925;-68
2022/08/22 06:46:46;;;;;;;0.10;0.10;;;17.20;99.90;;;;;;5000695;28;20428;-68
2022/08/22 06:49:13;;;;;;;0.52;0.52;;;17.20;99.90;;;;;;4995425;28;20049;-68
2022/08/22 06:51:39;;;;;;;0.08;0.08;;;17.20;99.90;;;;;;4993152;28;20073;-68
2022/08/22 06:54:13;;;;;;;24.10;0.55;;;17.20;99.90;;;;;;4999681;28;20064;-68
2022/08/22 06:56:42;;;;;;;0.00;0.00;;;17.20;99.90;;;;;;4999597;28;20092;-68
2022/08/22 06:59:12;;;;;;;1.52;0.57;;;17.30;99.90;;;;;;4997156;28;20136;-69
2022/08/22 07:02:12;;;;;;;0.03;0.03;;;17.30;99.90;;;;;;5006905;28;20050;-68
2022/08/22 07:04:38;;;;;;;0.10;0.10;;;17.40;99.90;;;;;;4988283;28;20082;-68
2022/08/22 07:07:04;;;;;;;0.75;0.75;;;17.50;99.90;;;;;;5004489;28;20049;-68
2022/08/22 07:09:36;;;;;;;0.10;0.10;;;17.60;99.90;;;;;;5005366;28;20053;-68
2022/08/22 07:12:17;;;;;;;0.00;0.00;;;17.70;99.90;;;;;;4990153;28;20053;-68
2022/08/22 07:14:48;;;;;;;0.17;0.17;;;17.80;99.90;;;;;;4989805;28;20042;-68
2022/08/22 07:17:42;;;;;;;0.00;0.00;;;18.00;99.90;;;;;;4988701;28;20112;-68
2022/08/22 07:20:26;;;;;;;0.08;0.08;;;18.10;99.90;;;;;;4992602;28;20050;-68
2022/08/22 07:22:56;;;;;;;0.00;0.00;;;18.20;99.90;;;;;;4989465;28;20053;-68
2022/08/22 07:25:23;;;;;;;0.08;0.08;;;18.30;99.90;;;;;;4989692;28;20081;-68
2022/08/22 07:28:13;;;;;;;7.03;0.93;;;18.40;99.90;;;;;;4988707;28;20050;-68
2022/08/22 07:31:01;;;;;;;0.10;0.10;;;18.50;99.90;;;;;;4989032;28;20038;-69
2022/08/22 07:33:43;;;;;;;0.00;0.00;;;18.70;99.90;;;;;;4989877;28;20046;-69
2022/08/22 07:36:22;;;;;;;0.50;0.50;;;18.80;99.90;;;;;;5000223;28;20482;-69
2022/08/22 07:39:15;;;;;;;1.98;0.90;;;18.90;99.90;;;;;;5009034;28;20141;-69
2022/08/22 07:42:11;;;;;;;0.52;0.45;;;19.00;99.90;;;;;;5002563;28;20112;-69
2022/08/22 07:44:59;;;;;;;0.10;0.10;;;19.10;99.90;;;;;;4992184;28;20056;-69
2022/08/22 07:47:39;;;;;;;0.10;0.10;;;19.10;99.90;;;;;;4996162;28;20045;-69
2022/08/22 07:50:09;;;;;;;0.00;0.00;;;19.20;99.90;;;;;;5002894;28;20034;-69
2022/08/22 07:52:41;;;;;;;0.00;0.00;;;19.20;99.90;;;;;;5008876;28;20046;-69
2022/08/22 07:55:21;;;;;;;0.03;0.03;;;19.30;99.90;;;;;;5007962;28;20141;-69
2022/08/22 07:57:56;;;;;;;0.00;0.00;;;19.40;99.90;;;;;;4990648;28;20054;-69
2022/08/22 08:00:24;;;;;;;0.00;0.00;;;19.40;99.90;;;;;;4993329;28;20084;-69
2022/08/22 08:02:52;;;;;;;0.00;0.00;;;19.50;99.90;;;;;;4989545;28;20410;-69
2022/08/22 08:05:22;;;;;;;0.10;0.10;;;19.50;99.90;;;;;;4987913;28;20453;-69
2022/08/22 08:07:52;;;;;;;0.32;0.17;;;19.50;99.90;;;;;;4989246;28;20502;-69
2022/08/22 08:10:24;;;;;;;0.57;0.57;;;19.60;99.90;;;;;;4987584;28;20129;-68
2022/08/22 08:12:53;;;;;;;0.10;0.10;;;19.60;99.90;;;;;;4989498;28;20066;-69
2022/08/22 08:15:22;;;;;;;0.00;0.00;;;19.70;99.90;;;;;;4998173;28;20091;-69
2022/08/22 08:17:53;;;;;;;0.10;0.10;;;19.70;99.90;;;;;;5005995;28;20141;-68
2022/08/22 08:20:21;;;;;;;0.00;0.00;;;19.80;99.90;;;;;;5000063;28;20042;-69
2022/08/22 08:22:49;;;;;;;0.22;0.22;;;19.70;99.90;;;;;;4990482;28;20138;-69
2022/08/22 08:25:22;;;;;;;0.00;0.00;;;19.80;99.90;;;;;;4988616;28;20057;-69
2022/08/22 08:30:35;;;;;;;0.00;0.00;;;19.90;99.90;;;;;;5000042;28;20085;-69
2022/08/22 08:33:03;;;;;;;0.10;0.10;;;20.00;99.90;;;;;;4996870;28;20057;-69
2022/08/22 08:35:34;;;;;;;0.55;0.55;;;20.00;99.90;;;;;;4989059;28;20093;-69
2022/08/22 08:38:09;;;;;;;0.20;0.20;;;20.10;99.90;;;;;;4989853;28;20816;-69
2022/08/22 08:41:05;;;;;;;0.10;0.10;;;20.10;99.90;;;;;;4988121;28;20050;-69
2022/08/22 08:43:46;;;;;;;0.00;0.00;;;20.20;99.90;;;;;;4992797;28;20054;-69
2022/08/22 08:46:42;;;;;;;0.08;0.08;;;20.20;99.90;;;;;;4987204;28;20054;-69
2022/08/22 08:49:16;;;;;;;0.00;0.00;;;20.20;99.90;;;;;;4988776;28;20082;-69
2022/08/22 08:52:02;;;;;;;0.00;0.00;;;20.40;99.90;;;;;;4991545;28;20045;-69
2022/08/22 08:54:44;;;;;;;0.00;0.00;;;20.40;99.90;;;;;;5003374;28;20042;-69
2022/08/22 08:57:28;;;;;;;0.00;0.00;;;20.30;99.90;;;;;;4998790;28;20125;-69
2022/08/22 09:00:11;;;;;;;0.20;0.10;;;20.40;99.90;;;;;;5007805;28;20046;-69
2022/08/22 09:02:46;;;;;;;0.10;0.10;;;20.50;99.90;;;;;;4991206;28;20112;-69
2022/08/22 09:05:42;;;;;;;0.00;0.00;;;20.60;99.90;;;;;;4988860;28;20309;-69
2022/08/22 09:08:44;;;;;;;0.15;0.10;;;20.70;99.90;;;;;;4988000;28;20054;-69
2022/08/22 09:11:31;;;;;;;0.00;0.00;;;20.90;99.90;;;;;;4989915;28;20576;-69
2022/08/22 09:14:35;;;;;;;0.00;0.00;;;21.40;99.90;;;;;;4998273;28;20030;-69
2022/08/22 09:17:32;;;;;;;0.52;0.35;;;22.00;99.90;;;;;;5005919;28;20147;-69
2022/08/22 09:20:35;;;;;;;0.10;0.10;;;22.60;99.90;;;;;;5008191;28;20108;-69
2022/08/22 09:23:31;;;;;;;0.10;0.10;;;23.40;99.90;;;;;;4994320;28;20069;-69
2022/08/22 09:26:24;;;;;;;0.43;0.43;;;24.10;99.90;;;;;;5002866;28;20050;-69
2022/08/22 09:28:52;;;;;;;0.03;0.03;;;24.50;99.90;;;;;;4989581;28;20322;-69
2022/08/22 09:31:45;;;;;;;0.15;0.15;;;24.90;99.90;;;;;;4994978;28;20061;-69
2022/08/22 09:34:45;;;;;;;1.27;0.15;;;25.00;99.90;;;;;;4989641;28;20058;-69
2022/08/22 09:37:20;;;;;;;0.00;0.00;;;25.50;99.90;;;;;;4998207;28;20122;-69
2022/08/22 09:39:57;;;;;;;0.00;0.00;;;25.60;99.90;;;;;;4999338;28;20053;-69
2022/08/22 09:42:40;;;;;;;0.00;0.00;;;25.40;99.90;;;;;;4999719;28;20549;-68
2022/08/22 09:45:05;;;;;;;0.43;0.43;;;25.60;99.90;;;;;;5010934;28;20042;-69
2022/08/22 09:47:58;;;;;;;0.00;0.00;;;25.70;99.90;;;;;;4998858;28;20057;-69
2022/08/22 09:50:45;;;;;;;1.77;0.70;;;25.90;99.90;;;;;;4991412;28;20405;-69
2022/08/22 09:53:36;;;;;;;0.00;0.00;;;26.20;99.90;;;;;;4990234;28;20078;-69
2022/08/22 09:56:07;;;;;;;0.00;0.00;;;26.20;99.90;;;;;;4991404;28;20046;-69
2022/08/22 09:58:48;;;;;;;0.00;0.00;;;26.40;99.90;;;;;;4990828;28;20113;-69
2022/08/22 10:01:52;;;;;;;0.00;0.00;;;26.60;99.90;;;;;;5006118;28;20029;-69
2022/08/22 10:04:40;;;;;;;0.13;0.05;;;26.50;99.90;;;;;;4990123;28;20605;-69
2022/08/22 10:07:30;;;;;;;0.05;0.05;;;26.80;99.90;;;;;;4991529;28;20406;-69
2022/08/22 10:10:24;;;;;;;0.00;0.00;;;26.80;99.90;;;;;;4990458;28;20062;-69
2022/08/22 10:13:23;;;;;;;0.38;0.38;;;26.60;99.90;;;;;;4998873;28;20042;-68
2022/08/22 10:15:57;;;;;;;0.00;0.00;;;26.60;99.40;;;;;;4998207;28;20481;-69
2022/08/22 10:18:35;;;;;;;0.73;0.73;;;26.60;99.90;;;;;;5005620;28;20053;-69
2022/08/22 10:21:25;;;;;;;0.00;0.00;;;26.60;98.40;;;;;;5010109;28;20137;-69
2022/08/22 10:24:00;;;;;;;0.03;0.03;;;26.30;99.10;;;;;;5009455;28;20050;-69
2022/08/22 10:26:31;;;;;;;0.00;0.00;;;26.50;99.90;;;;;;4994287;28;20160;-69
2022/08/22 10:29:14;;;;;;;1.23;0.10;;;26.40;99.90;;;;;;5009670;28;20052;-69
2022/08/22 10:31:51;;;;;;;0.35;0.35;;;26.40;99.90;;;;;;5009145;28;20143;-69
2022/08/22 10:34:23;;;;;;;0.00;0.00;;;26.40;98.50;;;;;;5008965;28;20062;-69
2022/08/22 10:36:51;;;;;;;0.40;0.40;;;26.00;99.20;;;;;;5009891;28;20078;-69
2022/08/22 10:39:36;;;;;;;0.00;0.00;;;26.20;99.60;;;;;;5009149;28;20490;-69
2022/08/22 10:42:10;;;;;;;0.00;0.00;;;26.10;99.90;;;;;;4997048;28;20502;-69
2022/08/22 10:44:54;;;;;;;1.45;0.70;;;26.10;99.90;;;;;;4993284;28;20046;-69
2022/08/22 10:47:27;;;;;;;0.65;0.50;;;26.20;99.80;;;;;;4990022;28;20049;-69
2022/08/22 10:50:20;;;;;;;0.10;0.10;;;26.10;98.20;;;;;;4991916;28;20051;-69
2022/08/22 10:55:47;;;;;;;0.00;0.00;;;26.10;98.80;;;;;;4988303;28;20062;-69
2022/08/22 10:58:28;;;;;;;0.20;0.20;;;26.00;99.30;;;;;;4989319;28;20062;-70
2022/08/22 11:00:58;;;;;;;0.10;0.10;;;26.30;99.90;;;;;;4989771;28;20564;-69
2022/08/22 11:03:58;;;;;;;0.00;0.00;;;26.30;99.10;;;;;;4989070;28;20042;-69
2022/08/22 11:07:13;;;;;;;0.10;0.10;;;26.30;98.20;;;;;;4989554;28;20393;-69
2022/08/22 11:09:42;;;;;;;0.00;0.00;;;26.40;99.90;;;;;;4987317;28;20242;-69
2022/08/22 11:12:13;;;;;;;0.00;0.00;;;26.60;99.60;;;;;;4990711;28;20046;-69
2022/08/22 11:15:06;;;;;;;0.00;0.00;;;26.70;99.60;;;;;;4999244;28;20690;-68
2022/08/22 11:18:07;;;;;;;0.00;0.00;;;26.80;98.70;;;;;;4990573;28;20077;-69
2022/08/22 11:21:09;;;;;;;0.00;0.00;;;26.90;98.70;;;;;;5003921;28;20409;-69
2022/08/22 11:23:51;;;;;;;0.10;0.10;;;26.90;98.00;;;;;;5001908;28;20038;-69
2022/08/22 11:26:38;;;;;;;0.00;0.00;;;27.00;99.10;;;;;;4996865;28;20060;-69
2022/08/22 11:29:33;;;;;;;0.00;0.00;;;26.90;96.60;;;;;;5008874;28;20405;-69
2022/08/22 11:32:15;;;;;;;0.73;0.45;;;26.80;97.00;;;;;;4988449;28;20057;-69
2022/08/22 11:34:56;;;;;;;0.10;0.10;;;26.30;98.20;;;;;;4989776;28;20082;-69
2022/08/22 11:38:00;;;;;;;0.00;0.00;;;25.80;98.40;;;;;;4989976;28;20054;-69
2022/08/22 11:40:54;;;;;;;0.40;0.40;;;25.40;97.70;;;;;;4966844;28;20050;-69
2022/08/22 11:43:38;;;;;;;0.25;0.25;;;26.00;98.50;;;;;;4998724;28;20050;-69
2022/08/22 11:46:14;;;;;;;0.30;0.28;;;26.00;98.30;;;;;;5008819;28;20042;-69
2022/08/22 11:48:42;;;;;;;0.00;0.00;;;25.50;99.60;;;;;;5001027;28;20066;-69
2022/08/22 11:51:32;;;;;;;0.10;0.10;;;25.30;98.80;;;;;;4989401;28;20050;-69
2022/08/22 11:54:09;;;;;;;0.00;0.00;;;25.10;98.70;;;;;;4995634;28;20046;-69
2022/08/22 11:56:48;;;;;;;0.10;0.10;;;24.90;99.00;;;;;;5007314;28;20404;-69
2022/08/22 11:59:20;;;;;;;0.00;0.00;;;24.70;99.90;;;;;;4995346;28;20502;-69
2022/08/22 12:01:52;;;;;;;0.00;0.00;;;24.60;99.90;;;;;;4989690;28;20406;-69
2022/08/22 12:04:38;;;;;;;0.20;0.20;;;25.40;99.80;;;;;;4988357;28;20050;-69
2022/08/22 12:07:36;;;;;;;0.00;0.00;;;26.20;99.90;;;;;;4994859;28;20644;-69
2022/08/22 12:10:20;;;;;;;0.00;0.00;;;26.80;99.90;;;;;;4987248;28;20690;-70
2022/08/22 12:12:59;;;;;;;0.25;0.25;;;27.10;99.90;;;;;;4991405;28;20049;-69
2022/08/22 12:16:07;;;;;;;0.10;0.10;;;27.50;98.90;;;;;;5001142;28;20057;-69
2022/08/22 12:18:46;;;;;;;0.95;0.88;;;27.80;98.40;;;;;;4997255;28;20421;-70
2022/08/22 12:21:33;;;;;;;0.00;0.00;;;28.20;97.20;;;;;;4994831;28;20077;-69
2022/08/22 12:24:39;;;;;;;0.00;0.00;;;27.70;97.80;;;;;;4999822;28;20105;-70
2022/08/22 12:27:32;;;;;;;0.00;0.00;;;26.90;97.50;;;;;;4989529;28;20045;-70
2022/08/22 12:30:07;;;;;;;0.00;0.00;;;27.20;98.60;;;;;;4997831;28;20049;-68
2022/08/22 12:33:03;;;;;;;0.00;0.00;;;27.30;96.80;;;;;;4989089;28;20057;-70
2022/08/22 12:35:40;;;;;;;0.00;0.00;;;26.60;97.40;;;;;;5004181;28;20053;-70
2022/08/22 12:38:08;;;;;;;0.00;0.00;;;26.90;98.50;;;;;;4993117;28;20081;-71
2022/08/22 12:41:04;;;;;;;0.13;0.13;;;26.80;97.60;;;;;;5000321;28;20056;-71
2022/08/22 12:43:52;;;;;;;1.20;1.10;;;27.10;99.50;;;;;;4992594;28;20062;-71
2022/08/22 12:46:42;;;;;;;0.10;0.10;;;27.00;99.10;;;;;;4992379;28;20594;-71
2022/08/22 12:49:29;;;;;;;0.00;0.00;;;27.10;99.80;;;;;;4995665;28;20201;-72
2022/08/22 12:51:58;;;;;;;2.83;1.27;;;27.70;97.60;;;;;;4992219;28;20852;-71
2022/08/22 12:54:37;;;;;;;0.10;0.10;;;28.10;98.40;;;;;;4997459;28;20076;-72
2022/08/22 12:57:35;;;;;;;0.20;0.10;;;27.70;98.00;;;;;;4992321;28;20050;-71
2022/08/22 13:00:20;;;;;;;0.03;0.03;;;27.20;98.80;;;;;;4987846;28;20472;-72
2022/08/22 13:02:51;;;;;;;0.00;0.00;;;26.70;98.50;;;;;;5004981;28;20295;-70
2022/08/22 13:05:22;;;;;;;0.00;0.00;;;27.00;99.70;;;;;;5010478;28;20048;-71
2022/08/22 13:07:55;;;;;;;0.00;0.00;;;27.30;98.30;;;;;;5009925;28;20054;-71
2022/08/22 13:10:42;;;;;;;0.08;0.08;;;26.60;98.60;;;;;;5011673;28;20107;-71
2022/08/22 13:13:12;;;;;;;0.00;0.00;;;26.20;99.40;;;;;;5010888;28;20131;-70
2022/08/22 13:15:46;;;;;;;0.00;0.00;;;26.00;98.50;;;;;;5010828;28;20487;-70
2022/08/22 13:18:18;;;;;;;0.00;0.00;;;25.80;99.70;;;;;;5004288;28;20121;-70
2022/08/22 13:20:49;;;;;;;0.20;0.10;;;25.50;99.90;;;;;;4999509;28;20097;-70
2022/08/22 13:23:47;;;;;;;0.00;0.00;;;25.40;99.50;;;;;;4992207;28;20398;-70
2022/08/22 13:26:24;;;;;;;0.35;0.35;;;25.30;99.90;;;;;;4995840;28;20051;-70
2022/08/22 13:29:04;;;;;;;0.52;0.43;;;25.20;99.00;;;;;;5009375;28;20061;-70
2022/08/22 13:31:33;;;;;;;0.00;0.00;;;25.50;99.90;;;;;;4995309;28;20046;-70
2022/08/22 13:34:26;;;;;;;0.08;0.08;;;26.40;99.90;;;;;;4990881;28;20441;-71
2022/08/22 13:36:56;;;;;;;0.00;0.00;;;26.00;99.10;;;;;;4990048;28;20054;-71
2022/08/22 13:39:27;;;;;;;0.15;0.15;;;25.60;99.60;;;;;;4991491;28;20050;-70
2022/08/22 13:41:59;;;;;;;0.15;0.15;;;25.50;99.90;;;;;;4995927;28;20497;-70
2022/08/22 13:44:48;;;;;;;0.88;0.20;;;25.80;99.90;;;;;;4993942;28;20124;-70
2022/08/22 13:47:16;;;;;;;0.00;0.00;;;26.40;99.10;;;;;;5010378;28;20041;-70
2022/08/22 13:49:49;;;;;;;0.00;0.00;;;26.80;98.90;;;;;;4996790;28;20113;-71
2022/08/22 13:52:41;;;;;;;0.00;0.00;;;27.60;98.60;;;;;;4999541;28;20045;-71
2022/08/22 13:55:28;;;;;;;0.00;0.00;;;27.50;98.00;;;;;;5003955;28;20070;-71
2022/08/22 13:58:03;;;;;;;0.05;0.05;;;27.20;98.70;;;;;;4996273;28;20060;-70
2022/08/22 14:00:51;;;;;;;0.05;0.05;;;27.00;98.00;;;;;;5008152;28;20054;-70
2022/08/22 14:03:24;;;;;;;0.00;0.00;;;27.30;98.20;;;;;;4998781;28;20046;-70
2022/08/22 14:05:54;;;;;;;9.32;0.50;;;27.80;98.00;;;;;;4995955;28;20065;-70
2022/08/22 14:08:49;;;;;;;0.45;0.28;;;28.00;97.30;;;;;;4995003;28;20098;-71